Time;durP1;ratioP1;P1;durP2;ratioP2;P2;SDS_P1;SDS_P2;PMS_P1;PMS_P2;Temp;Humidity;BMP_temperature;BMP_pressure;BME280_temperature;BME280_humidity;BME280_pressure;Samples;Min_cycle;Max_cycle;Signal;HPM_P1;HPM_P2
2023/10/26 00:00:32;;;;;;;37.63;24.67;;;9.80;99.90;;;;;;5077163;28;20093;-76
2023/10/26 00:02:58;;;;;;;40.25;24.65;;;9.90;99.90;;;;;;5075289;28;20052;-76
2023/10/26 00:05:24;;;;;;;38.67;25.42;;;9.90;99.90;;;;;;5087523;28;20060;-75
2023/10/26 00:07:50;;;;;;;48.85;28.95;;;9.80;99.90;;;;;;5091997;28;20041;-76
2023/10/26 00:10:16;;;;;;;42.38;29.02;;;9.90;99.90;;;;;;5078553;28;20053;-76
2023/10/26 00:12:41;;;;;;;49.50;30.20;;;9.90;99.90;;;;;;5079213;28;20047;-77
2023/10/26 00:15:08;;;;;;;47.35;31.08;;;9.80;99.90;;;;;;5095863;28;20048;-77
2023/10/26 00:17:34;;;;;;;51.75;32.80;;;9.80;99.90;;;;;;5091546;28;20066;-76
2023/10/26 00:19:59;;;;;;;53.13;31.80;;;9.70;99.90;;;;;;5077517;28;20044;-76
2023/10/26 00:22:29;;;;;;;56.72;33.35;;;9.80;99.90;;;;;;5077688;28;20048;-76
2023/10/26 00:24:54;;;;;;;74.63;40.33;;;9.80;99.90;;;;;;5097455;28;20044;-76
2023/10/26 00:27:20;;;;;;;68.15;38.22;;;9.80;99.90;;;;;;5095793;28;20105;-77
2023/10/26 00:29:46;;;;;;;67.03;37.28;;;9.70;99.90;;;;;;5091773;28;20037;-76
2023/10/26 00:32:11;;;;;;;55.75;35.33;;;9.90;99.90;;;;;;5098761;28;20127;-76
2023/10/26 00:34:37;;;;;;;67.50;38.92;;;9.90;99.90;;;;;;5097772;28;20044;-76
2023/10/26 00:37:04;;;;;;;78.63;41.30;;;9.80;99.90;;;;;;5079731;28;20044;-76
2023/10/26 00:39:30;;;;;;;96.00;48.35;;;9.80;99.90;;;;;;5097212;28;20040;-76
2023/10/26 00:41:57;;;;;;;87.85;45.60;;;9.70;99.90;;;;;;5097278;28;20047;-77
2023/10/26 00:44:23;;;;;;;75.32;44.15;;;9.70;99.90;;;;;;5095173;28;20048;-76
2023/10/26 00:46:50;;;;;;;79.20;44.67;;;9.70;99.90;;;;;;5094924;28;20059;-77
2023/10/26 00:49:17;;;;;;;74.53;41.83;;;9.70;99.90;;;;;;5077876;28;20059;-76
2023/10/26 00:51:58;;;;;;;76.40;44.23;;;9.80;99.90;;;;;;5113517;28;20310;-76
2023/10/26 00:54:25;;;;;;;79.10;45.88;;;9.80;99.90;;;;;;5098614;28;20131;-76
2023/10/26 00:56:51;;;;;;;87.68;46.05;;;9.80;99.90;;;;;;5093597;28;20048;-76
2023/10/26 00:59:18;;;;;;;82.63;46.30;;;9.80;99.90;;;;;;5092712;28;20358;-77
2023/10/26 01:01:48;;;;;;;78.80;47.97;;;9.80;99.90;;;;;;5084626;28;20040;-76
2023/10/26 01:04:14;;;;;;;88.13;49.28;;;9.80;99.90;;;;;;5077051;28;20044;-76
2023/10/26 01:06:44;;;;;;;92.05;51.45;;;9.90;99.90;;;;;;5095782;28;20055;-76
2023/10/26 01:09:10;;;;;;;103.07;53.90;;;9.80;99.90;;;;;;5065852;28;20040;-76
2023/10/26 01:11:37;;;;;;;104.22;53.83;;;9.90;99.90;;;;;;5079246;28;20498;-75
2023/10/26 01:14:07;;;;;;;99.93;52.27;;;9.90;99.90;;;;;;5096809;28;20040;-76
2023/10/26 01:16:37;;;;;;;105.45;55.67;;;9.70;99.90;;;;;;5081951;28;20085;-76
2023/10/26 01:19:05;;;;;;;102.97;54.30;;;9.80;99.90;;;;;;5079239;28;20048;-76
2023/10/26 01:21:46;;;;;;;99.07;53.78;;;9.70;99.90;;;;;;5060447;28;20075;-77
2023/10/26 01:24:12;;;;;;;124.97;59.97;;;9.80;99.90;;;;;;5078267;28;20040;-76
2023/10/26 01:26:40;;;;;;;126.47;61.47;;;9.80;99.90;;;;;;5076380;28;20036;-76
2023/10/26 01:29:06;;;;;;;97.18;55.75;;;9.70;99.90;;;;;;5078565;28;20047;-76
2023/10/26 01:31:32;;;;;;;116.22;60.60;;;9.70;99.90;;;;;;5095316;28;20036;-76
2023/10/26 01:33:57;;;;;;;102.25;56.42;;;9.70;99.90;;;;;;5074375;28;20131;-76
2023/10/26 01:36:26;;;;;;;120.18;60.95;;;9.80;99.90;;;;;;5076308;28;20442;-77
2023/10/26 01:38:54;;;;;;;108.35;57.80;;;9.80;99.90;;;;;;5092750;28;20066;-76
2023/10/26 01:41:20;;;;;;;98.85;56.78;;;9.80;99.90;;;;;;5095680;28;20052;-76
2023/10/26 01:43:46;;;;;;;112.18;60.47;;;9.80;99.90;;;;;;5091852;28;20473;-76
2023/10/26 01:46:12;;;;;;;109.75;59.65;;;9.70;99.90;;;;;;5075636;28;20489;-76
2023/10/26 01:48:38;;;;;;;112.78;60.50;;;9.80;99.90;;;;;;5084341;28;20038;-76
2023/10/26 01:51:04;;;;;;;115.43;60.38;;;9.80;99.90;;;;;;5096449;28;20036;-77
2023/10/26 01:53:30;;;;;;;101.60;58.20;;;9.80;99.90;;;;;;5080913;28;20076;-76
2023/10/26 01:55:55;;;;;;;106.13;58.58;;;10.00;99.90;;;;;;5075723;28;20040;-76
2023/10/26 01:58:21;;;;;;;134.73;61.38;;;9.80;99.90;;;;;;5088590;28;20036;-76
2023/10/26 02:00:46;;;;;;;112.65;59.85;;;9.80;99.90;;;;;;5094066;28;20101;-77
2023/10/26 02:03:12;;;;;;;100.30;56.55;;;9.80;99.90;;;;;;5091542;28;20044;-78
2023/10/26 02:05:38;;;;;;;107.80;58.45;;;9.90;99.90;;;;;;5080700;28;20048;-75
2023/10/26 02:08:03;;;;;;;101.13;58.72;;;9.90;99.90;;;;;;5087134;28;20501;-76
2023/10/26 02:10:29;;;;;;;113.72;60.03;;;9.80;99.90;;;;;;5056607;28;20040;-77
2023/10/26 02:12:58;;;;;;;165.23;65.78;;;9.80;99.90;;;;;;5085251;28;20036;-76
2023/10/26 02:15:24;;;;;;;131.23;63.65;;;9.80;99.90;;;;;;5073112;28;20127;-76
2023/10/26 02:17:52;;;;;;;118.03;60.78;;;9.80;99.90;;;;;;5101238;28;20044;-77
2023/10/26 02:20:18;;;;;;;102.85;57.17;;;9.80;99.90;;;;;;5073279;28;20045;-76
2023/10/26 02:22:43;;;;;;;106.57;58.50;;;9.90;99.90;;;;;;5098955;28;20036;-77
2023/10/26 02:25:09;;;;;;;107.00;58.97;;;9.80;99.90;;;;;;5105601;28;20504;-77
2023/10/26 02:27:38;;;;;;;130.35;63.10;;;9.80;99.90;;;;;;5075013;28;20040;-77
2023/10/26 02:30:04;;;;;;;101.68;58.00;;;9.80;99.90;;;;;;5073158;28;20132;-76
2023/10/26 02:32:30;;;;;;;107.45;59.08;;;9.90;99.90;;;;;;5076857;28;20049;-76
2023/10/26 02:34:55;;;;;;;103.18;57.85;;;9.90;99.90;;;;;;5082788;28;20449;-77
2023/10/26 02:37:21;;;;;;;123.05;62.13;;;9.80;99.90;;;;;;5090960;28;20083;-76
2023/10/26 02:39:47;;;;;;;114.20;60.42;;;9.80;99.90;;;;;;5078083;28;20043;-77
2023/10/26 02:42:15;;;;;;;104.90;58.15;;;9.70;99.90;;;;;;5076557;28;20505;-77
2023/10/26 02:44:40;;;;;;;112.18;59.60;;;9.80;99.90;;;;;;5056753;28;20132;-76
2023/10/26 02:47:06;;;;;;;100.22;56.20;;;9.90;99.90;;;;;;5073358;28;20072;-76
2023/10/26 02:49:31;;;;;;;102.20;55.20;;;9.80;99.90;;;;;;5073470;28;20143;-77
2023/10/26 02:51:57;;;;;;;104.43;57.53;;;9.80;99.90;;;;;;5074378;28;20036;-77
2023/10/26 02:54:26;;;;;;;94.72;53.85;;;9.80;99.90;;;;;;5084739;28;20069;-76
2023/10/26 02:56:51;;;;;;;;;;;10.20;99.90;;;;;;5093116;28;20052;-76
2023/10/26 02:59:17;;;;;;;145.65;63.75;;;9.80;99.90;;;;;;5090542;28;19973;-77
2023/10/26 03:01:42;;;;;;;146.20;61.88;;;9.80;99.90;;;;;;5084707;28;20044;-76
2023/10/26 03:04:08;;;;;;;119.97;60.05;;;9.70;99.90;;;;;;5096889;28;20052;-77
2023/10/26 03:06:38;;;;;;;101.65;55.90;;;9.80;99.90;;;;;;5083619;28;20041;-77
2023/10/26 03:09:08;;;;;;;117.03;58.63;;;9.80;99.90;;;;;;5094396;28;20136;-77
2023/10/26 03:11:34;;;;;;;97.88;55.92;;;9.70;99.90;;;;;;5094253;28;20122;-76
2023/10/26 03:14:00;;;;;;;90.32;53.53;;;9.70;99.90;;;;;;5086578;28;20049;-76
2023/10/26 03:16:26;;;;;;;102.85;55.35;;;9.80;99.90;;;;;;5072511;28;20048;-77
2023/10/26 03:18:52;;;;;;;99.35;54.28;;;9.80;99.90;;;;;;5085382;28;20055;-76
2023/10/26 03:21:20;;;;;;;104.78;57.53;;;9.70;99.90;;;;;;5068176;28;20221;-76
2023/10/26 03:23:57;;;;;;;109.75;55.92;;;9.80;99.90;;;;;;5083913;28;20516;-75
2023/10/26 03:26:23;;;;;;;112.55;58.58;;;9.80;99.90;;;;;;5077606;28;20382;-76
2023/10/26 03:28:50;;;;;;;113.78;57.38;;;9.70;99.90;;;;;;5087953;28;20051;-77
2023/10/26 03:31:16;;;;;;;107.45;56.90;;;9.70;99.90;;;;;;5093162;28;20048;-77
2023/10/26 03:33:42;;;;;;;113.82;59.10;;;9.70;99.90;;;;;;5091374;28;20076;-77
2023/10/26 03:36:19;;;;;;;118.00;58.90;;;9.70;99.90;;;;;;5090449;28;20371;-76
2023/10/26 03:38:45;;;;;;;98.97;54.50;;;9.70;99.90;;;;;;5069723;28;20529;-76
2023/10/26 03:41:11;;;;;;;119.07;58.40;;;9.70;99.90;;;;;;5078911;28;20119;-76
2023/10/26 03:43:37;;;;;;;119.63;60.88;;;9.60;99.90;;;;;;5075445;28;20490;-77
2023/10/26 03:46:04;;;;;;;102.05;55.45;;;9.60;99.90;;;;;;5095960;28;20123;-76
2023/10/26 03:48:34;;;;;;;97.27;48.43;;;9.80;99.90;;;;;;5086253;28;20055;-77
2023/10/26 03:51:00;;;;;;;100.63;55.92;;;9.80;99.90;;;;;;5078827;28;20419;-77
2023/10/26 03:53:26;;;;;;;96.95;55.58;;;9.70;99.90;;;;;;5095074;28;20029;-77
2023/10/26 03:55:52;;;;;;;111.40;56.45;;;9.60;99.90;;;;;;5096709;28;20075;-76
2023/10/26 03:58:18;;;;;;;112.35;56.53;;;9.70;99.90;;;;;;5085080;28;20227;-77
2023/10/26 04:00:45;;;;;;;117.50;58.38;;;9.60;99.90;;;;;;5094238;28;20032;-77
2023/10/26 04:03:14;;;;;;;103.57;49.63;;;9.50;99.90;;;;;;5080191;28;20056;-76
2023/10/26 04:05:40;;;;;;;136.95;61.83;;;9.60;99.90;;;;;;5060446;28;20084;-77
2023/10/26 04:08:07;;;;;;;106.03;55.35;;;9.60;99.90;;;;;;5084622;28;20040;-77
2023/10/26 04:10:34;;;;;;;104.20;57.20;;;9.50;99.90;;;;;;5095286;28;20439;-76
2023/10/26 04:13:00;;;;;;;113.85;56.65;;;9.50;99.90;;;;;;5100095;28;20047;-76
2023/10/26 04:15:25;;;;;;;113.60;60.17;;;9.60;99.90;;;;;;5081381;28;20076;-76
2023/10/26 04:17:54;;;;;;;125.55;62.35;;;9.50;99.90;;;;;;5078037;28;20095;-77
2023/10/26 04:20:23;;;;;;;144.77;63.50;;;9.60;99.90;;;;;;5077291;28;20381;-77
2023/10/26 04:22:48;;;;;;;119.90;59.63;;;9.50;99.90;;;;;;5075289;28;20124;-77
2023/10/26 04:25:14;;;;;;;190.85;70.13;;;9.40;99.90;;;;;;5090853;28;20044;-77
2023/10/26 04:27:40;;;;;;;117.18;59.78;;;9.50;99.90;;;;;;5092513;28;20086;-76
2023/10/26 04:30:07;;;;;;;138.88;63.47;;;9.50;99.90;;;;;;5092787;28;20078;-76
2023/10/26 04:32:33;;;;;;;109.45;56.78;;;9.50;99.90;;;;;;5080162;28;20041;-77
2023/10/26 04:34:59;;;;;;;128.80;61.28;;;9.50;99.90;;;;;;5098958;28;20149;-76
2023/10/26 04:37:25;;;;;;;133.20;63.13;;;9.50;99.90;;;;;;5084833;28;20522;-76
2023/10/26 04:39:51;;;;;;;206.77;70.75;;;9.40;99.90;;;;;;5094121;28;20040;-77
2023/10/26 04:42:17;;;;;;;114.25;59.28;;;9.50;99.90;;;;;;5075800;28;20100;-77
2023/10/26 04:44:43;;;;;;;139.20;63.60;;;9.90;99.90;;;;;;5077315;28;20044;-77
2023/10/26 04:47:09;;;;;;;147.57;64.45;;;9.50;99.90;;;;;;5077446;28;20055;-77
2023/10/26 04:49:35;;;;;;;153.75;66.18;;;9.50;99.90;;;;;;5092899;28;20037;-77
2023/10/26 04:52:01;;;;;;;176.35;69.45;;;9.40;99.90;;;;;;5076851;28;20037;-76
2023/10/26 04:54:29;;;;;;;139.93;64.90;;;9.40;99.90;;;;;;5074540;28;20111;-77
2023/10/26 04:56:55;;;;;;;;;;;9.30;99.90;;;;;;5079360;28;20064;-77
2023/10/26 04:59:20;;;;;;;122.55;61.10;;;9.40;99.90;;;;;;5077285;28;19921;-77
2023/10/26 05:01:46;;;;;;;129.07;65.32;;;9.40;99.90;;;;;;5086706;28;20413;-77
2023/10/26 05:04:13;;;;;;;137.68;65.53;;;9.40;99.90;;;;;;5089837;28;20390;-78
2023/10/26 05:06:38;;;;;;;128.40;64.05;;;9.40;99.90;;;;;;5108286;28;20043;-76
2023/10/26 05:09:05;;;;;;;133.93;61.60;;;9.40;99.90;;;;;;5085533;28;20048;-77
2023/10/26 05:11:31;;;;;;;122.63;58.20;;;9.40;99.90;;;;;;5080548;28;20485;-76
2023/10/26 05:13:57;;;;;;;140.95;63.90;;;9.80;99.90;;;;;;5080303;28;20054;-77
2023/10/26 05:16:23;;;;;;;166.98;65.72;;;9.30;99.90;;;;;;5093055;28;20394;-77
2023/10/26 05:18:48;;;;;;;149.40;65.30;;;9.20;99.90;;;;;;5076537;28;20041;-77
2023/10/26 05:21:14;;;;;;;156.02;66.03;;;9.30;99.90;;;;;;5077629;28;20040;-78
2023/10/26 05:23:40;;;;;;;132.60;61.95;;;9.20;99.90;;;;;;5078095;28;20102;-76
2023/10/26 05:26:05;;;;;;;130.48;60.15;;;9.10;99.90;;;;;;5077515;28;20050;-77
2023/10/26 05:28:31;;;;;;;125.55;60.17;;;9.20;99.90;;;;;;5082020;28;20067;-77
2023/10/26 05:30:57;;;;;;;115.05;58.45;;;9.10;99.90;;;;;;5079290;28;20044;-77
2023/10/26 05:33:23;;;;;;;124.13;60.45;;;9.20;99.90;;;;;;5077322;28;20043;-77
2023/10/26 05:35:48;;;;;;;117.25;59.95;;;9.30;99.90;;;;;;5079894;28;20056;-77
2023/10/26 05:38:18;;;;;;;118.93;59.15;;;9.30;99.90;;;;;;5083008;28;20048;-76
2023/10/26 05:40:53;;;;;;;131.90;62.65;;;9.30;99.90;;;;;;5082022;28;20041;-77
2023/10/26 05:43:19;;;;;;;118.20;58.72;;;9.40;99.90;;;;;;5088702;28;20111;-76
2023/10/26 05:45:45;;;;;;;129.50;61.20;;;9.30;99.90;;;;;;5098080;28;20120;-76
2023/10/26 05:48:10;;;;;;;147.15;64.43;;;9.40;99.90;;;;;;5094738;28;20087;-77
2023/10/26 05:50:41;;;;;;;138.48;63.22;;;9.20;99.90;;;;;;5093032;27;20052;-76
2023/10/26 05:53:10;;;;;;;136.18;62.90;;;9.50;99.90;;;;;;5078093;28;20037;-77
2023/10/26 05:55:39;;;;;;;127.90;60.42;;;9.20;99.90;;;;;;5092276;28;20044;-76
2023/10/26 05:58:05;;;;;;;125.03;60.25;;;9.70;99.90;;;;;;5089655;28;20048;-76
2023/10/26 06:00:32;;;;;;;124.82;60.17;;;9.40;99.90;;;;;;5080510;28;20040;-76
2023/10/26 06:02:58;;;;;;;130.82;62.03;;;9.70;99.90;;;;;;5059400;28;20521;-76
2023/10/26 06:05:24;;;;;;;126.43;59.88;;;9.30;99.90;;;;;;5078358;28;20137;-77
2023/10/26 06:07:50;;;;;;;147.07;63.83;;;9.30;99.90;;;;;;5093385;28;20048;-77
2023/10/26 06:10:16;;;;;;;173.90;65.53;;;9.10;99.90;;;;;;5083477;28;20046;-77
2023/10/26 06:12:41;;;;;;;164.18;64.18;;;9.20;99.90;;;;;;5092042;28;20044;-76
2023/10/26 06:15:08;;;;;;;113.20;56.95;;;9.10;99.90;;;;;;5085750;28;20081;-76
2023/10/26 06:17:34;;;;;;;133.68;60.30;;;9.00;99.90;;;;;;5108850;28;20189;-76
2023/10/26 06:19:59;;;;;;;128.13;62.53;;;9.00;99.90;;;;;;5086749;28;20132;-76
2023/10/26 06:22:25;;;;;;;157.75;66.55;;;9.10;99.90;;;;;;5078051;28;20047;-77
2023/10/26 06:24:51;;;;;;;154.32;64.85;;;9.00;99.90;;;;;;5085261;28;20059;-76
2023/10/26 06:27:16;;;;;;;169.52;67.07;;;9.00;99.90;;;;;;5077760;28;20076;-76
2023/10/26 06:29:44;;;;;;;146.20;61.72;;;9.00;99.90;;;;;;5076794;28;20040;-77
2023/10/26 06:32:11;;;;;;;152.50;61.67;;;8.90;99.90;;;;;;5079120;28;20044;-76
2023/10/26 06:34:37;;;;;;;213.15;71.68;;;9.00;99.90;;;;;;5098169;28;20070;-76
2023/10/26 06:37:04;;;;;;;204.65;69.53;;;8.90;99.90;;;;;;5104597;28;20040;-77
2023/10/26 06:39:30;;;;;;;165.25;66.65;;;8.90;99.90;;;;;;5081949;28;20486;-76
2023/10/26 06:41:56;;;;;;;147.60;63.65;;;8.90;99.90;;;;;;5081282;28;20129;-76
2023/10/26 06:44:24;;;;;;;135.57;61.05;;;8.90;99.90;;;;;;5093884;28;20066;-76
2023/10/26 06:46:50;;;;;;;140.20;62.80;;;8.90;99.90;;;;;;5097159;28;20044;-76
2023/10/26 06:49:15;;;;;;;191.73;67.75;;;8.90;99.90;;;;;;5066183;28;20118;-76
2023/10/26 06:51:41;;;;;;;171.52;67.57;;;8.90;99.90;;;;;;5095055;28;20071;-77
2023/10/26 06:54:06;;;;;;;248.20;73.95;;;9.50;99.90;;;;;;5078568;28;20071;-76
2023/10/26 06:56:32;;;;;;;268.80;75.07;;;9.00;99.90;;;;;;5080858;28;20640;-76
2023/10/26 06:58:58;;;;;;;286.45;74.68;;;8.90;99.90;;;;;;5076751;28;20454;-77
2023/10/26 07:01:23;;;;;;;340.90;78.82;;;9.00;99.90;;;;;;5076869;28;20052;-76
2023/10/26 07:03:50;;;;;;;394.92;85.85;;;9.30;99.90;;;;;;5082151;28;20056;-76
2023/10/26 07:06:16;;;;;;;343.65;80.13;;;9.00;99.90;;;;;;5085499;28;20079;-76
2023/10/26 07:08:41;;;;;;;212.13;70.40;;;9.60;99.90;;;;;;5077377;28;20053;-76
2023/10/26 07:11:07;;;;;;;310.42;70.93;;;9.00;99.90;;;;;;5076725;28;20044;-76
2023/10/26 07:13:33;;;;;;;278.52;76.20;;;9.00;99.90;;;;;;5076238;28;20450;-75
2023/10/26 07:16:00;;;;;;;288.45;73.63;;;9.00;99.90;;;;;;5075240;28;20056;-76
2023/10/26 07:18:26;;;;;;;237.27;68.65;;;9.10;99.90;;;;;;5093137;28;20116;-77
2023/10/26 07:20:52;;;;;;;244.90;65.65;;;9.00;99.90;;;;;;5096645;28;20044;-76
2023/10/26 07:23:18;;;;;;;266.90;69.25;;;9.00;99.90;;;;;;5082033;28;20394;-76
2023/10/26 07:25:44;;;;;;;330.02;74.28;;;9.00;99.90;;;;;;5088901;28;20040;-77
2023/10/26 07:28:11;;;;;;;243.77;69.15;;;9.10;99.90;;;;;;5102958;28;20044;-76
2023/10/26 07:30:43;;;;;;;213.50;56.97;;;9.10;99.90;;;;;;5095435;28;20472;-76
2023/10/26 07:33:09;;;;;;;217.05;67.03;;;9.10;99.90;;;;;;5078932;28;20442;-77
2023/10/26 07:35:40;;;;;;;166.82;59.53;;;9.10;99.90;;;;;;5080962;28;20123;-77
2023/10/26 07:38:07;;;;;;;143.00;57.45;;;9.10;99.90;;;;;;5081478;28;20152;-76
2023/10/26 07:40:33;;;;;;;174.23;59.38;;;9.20;99.90;;;;;;5096934;28;20118;-76
2023/10/26 07:42:59;;;;;;;127.53;54.78;;;9.50;99.90;;;;;;5099619;28;20090;-76
2023/10/26 07:45:25;;;;;;;156.60;58.15;;;9.10;99.90;;;;;;5081644;28;20051;-75
2023/10/26 07:47:51;;;;;;;134.60;55.03;;;9.00;99.90;;;;;;5080298;28;20123;-75
2023/10/26 07:50:19;;;;;;;171.95;61.67;;;9.00;99.90;;;;;;5111077;27;20129;-77
2023/10/26 07:52:46;;;;;;;;;;;9.10;99.90;;;;;;5101023;28;20477;-76
2023/10/26 07:55:12;;;;;;;135.88;57.35;;;9.00;99.90;;;;;;5096828;28;20411;-77
2023/10/26 07:57:37;;;;;;;143.40;56.53;;;9.10;99.90;;;;;;5101866;28;20050;-76
2023/10/26 08:00:04;;;;;;;114.68;53.42;;;9.10;99.90;;;;;;5096027;28;20124;-76
2023/10/26 08:02:32;;;;;;;144.65;56.90;;;9.10;99.90;;;;;;5081547;28;20740;-76
2023/10/26 08:04:57;;;;;;;120.72;51.75;;;9.10;99.90;;;;;;5087466;28;20363;-76
2023/10/26 08:07:25;;;;;;;154.80;58.17;;;9.10;99.90;;;;;;5100402;28;20097;-76
2023/10/26 08:09:50;;;;;;;142.73;56.88;;;9.20;99.90;;;;;;5098398;28;20048;-77
2023/10/26 08:12:18;;;;;;;121.15;53.13;;;9.10;99.90;;;;;;5091990;28;20040;-76
2023/10/26 08:14:44;;;;;;;124.10;52.72;;;9.20;99.90;;;;;;5099027;28;20401;-76
2023/10/26 08:17:11;;;;;;;111.07;50.80;;;9.20;99.90;;;;;;5089103;28;20076;-76
2023/10/26 08:19:38;;;;;;;106.43;49.40;;;9.10;99.90;;;;;;5104107;28;20123;-77
2023/10/26 08:22:04;;;;;;;100.75;48.42;;;9.10;99.90;;;;;;5097839;28;20381;-76
2023/10/26 08:24:31;;;;;;;108.97;50.10;;;9.20;99.90;;;;;;5089044;28;20115;-76
2023/10/26 08:27:04;;;;;;;141.05;55.20;;;9.20;99.90;;;;;;5087231;28;20055;-77
2023/10/26 08:29:33;;;;;;;105.07;50.85;;;9.20;99.90;;;;;;5091525;28;20428;-76
2023/10/26 08:31:59;;;;;;;111.55;48.97;;;9.20;99.90;;;;;;5067850;28;20413;-76
2023/10/26 08:34:27;;;;;;;100.20;47.95;;;9.20;99.90;;;;;;5091552;28;20053;-77
2023/10/26 08:36:53;;;;;;;92.93;46.58;;;9.20;99.90;;;;;;5075960;28;20063;-77
2023/10/26 08:39:18;;;;;;;87.10;45.13;;;9.10;99.90;;;;;;5084210;28;20036;-76
2023/10/26 08:41:50;;;;;;;101.70;47.47;;;9.20;99.90;;;;;;5076107;28;20127;-77
2023/10/26 08:44:17;;;;;;;82.95;43.47;;;9.20;99.90;;;;;;5074998;28;20080;-76
2023/10/26 08:46:50;;;;;;;105.93;47.60;;;9.30;99.90;;;;;;5074940;28;20063;-77
2023/10/26 08:49:20;;;;;;;88.10;44.45;;;9.30;99.90;;;;;;5080810;28;20436;-76
2023/10/26 08:51:46;;;;;;;85.82;44.33;;;9.30;99.90;;;;;;5074168;28;20493;-77
2023/10/26 08:54:12;;;;;;;91.40;45.90;;;9.40;99.90;;;;;;5080403;28;20063;-77
2023/10/26 08:56:37;;;;;;;86.13;45.13;;;9.30;99.90;;;;;;5087265;28;20072;-76
2023/10/26 08:59:04;;;;;;;79.18;42.90;;;9.30;99.90;;;;;;5081124;28;20381;-76
2023/10/26 09:01:30;;;;;;;75.50;42.03;;;9.30;99.90;;;;;;5091752;28;20044;-76
2023/10/26 09:03:56;;;;;;;70.70;39.67;;;9.50;99.90;;;;;;5092429;28;20067;-77
2023/10/26 09:06:21;;;;;;;79.82;42.65;;;10.00;99.90;;;;;;5093211;28;20441;-76
2023/10/26 09:09:01;;;;;;;75.97;42.05;;;9.40;99.90;;;;;;5080477;28;20037;-76
2023/10/26 09:11:27;;;;;;;74.53;41.67;;;9.40;99.90;;;;;;5091840;28;20474;-76
2023/10/26 09:13:53;;;;;;;72.57;41.13;;;9.40;99.90;;;;;;5087881;28;20062;-77
2023/10/26 09:16:33;;;;;;;76.68;40.95;;;9.30;99.90;;;;;;5109440;28;20036;-77
2023/10/26 09:18:59;;;;;;;73.53;44.08;;;9.30;99.90;;;;;;5074209;28;20483;-77
2023/10/26 09:21:24;;;;;;;78.45;43.47;;;9.40;99.90;;;;;;5072337;28;20190;-77
2023/10/26 09:23:53;;;;;;;75.32;43.60;;;9.30;99.90;;;;;;5099232;28;20383;-78
2023/10/26 09:26:20;;;;;;;80.03;43.13;;;9.40;99.90;;;;;;5089515;28;20036;-77
2023/10/26 09:28:54;;;;;;;67.80;38.67;;;9.40;99.90;;;;;;5093829;28;20075;-77
2023/10/26 09:31:21;;;;;;;79.22;44.08;;;9.30;99.90;;;;;;5095489;28;20036;-76
2023/10/26 09:33:47;;;;;;;92.45;53.78;;;9.40;99.90;;;;;;5098733;28;20400;-77
2023/10/26 09:36:15;;;;;;;77.75;46.22;;;9.40;99.90;;;;;;5088413;28;20044;-76
2023/10/26 09:38:44;;;;;;;79.35;45.92;;;9.50;99.90;;;;;;5094528;28;20067;-77
2023/10/26 09:41:15;;;;;;;79.10;44.88;;;9.50;99.90;;;;;;5088472;28;20078;-78
2023/10/26 09:43:42;;;;;;;67.68;41.47;;;9.40;99.90;;;;;;5105898;28;20040;-77
2023/10/26 09:46:08;;;;;;;73.60;43.00;;;9.40;99.90;;;;;;5090747;28;20040;-78
2023/10/26 09:48:37;;;;;;;66.60;42.15;;;9.40;99.90;;;;;;5075316;28;20048;-77
2023/10/26 09:51:04;;;;;;;83.93;47.10;;;9.40;99.90;;;;;;5095439;28;20473;-77
2023/10/26 09:53:39;;;;;;;65.97;42.33;;;9.50;99.90;;;;;;5074496;28;20114;-77
2023/10/26 09:56:08;;;;;;;71.45;43.85;;;9.50;99.90;;;;;;5082931;28;20045;-77
2023/10/26 09:58:39;;;;;;;67.85;41.80;;;9.50;99.90;;;;;;5078581;28;20051;-77
2023/10/26 10:01:35;;;;;;;82.25;48.03;;;9.60;99.90;;;;;;5087823;28;20040;-77
2023/10/26 10:04:02;;;;;;;77.10;46.40;;;9.60;99.90;;;;;;5085638;28;20074;-77
2023/10/26 10:06:55;;;;;;;73.32;45.85;;;9.70;99.90;;;;;;5090937;28;20040;-77
2023/10/26 10:09:25;;;;;;;98.32;52.67;;;9.70;99.90;;;;;;5076889;28;20032;-77
2023/10/26 10:12:08;;;;;;;84.95;48.13;;;9.80;99.90;;;;;;5092496;28;20052;-77
2023/10/26 10:14:54;;;;;;;76.97;46.15;;;10.40;99.90;;;;;;5088693;28;20040;-78
2023/10/26 10:17:43;;;;;;;79.78;48.35;;;9.90;99.90;;;;;;5080550;28;20056;-77
2023/10/26 10:20:15;;;;;;;87.68;51.20;;;9.90;99.90;;;;;;5090382;28;20044;-77
2023/10/26 10:22:40;;;;;;;76.00;45.90;;;10.00;99.90;;;;;;5087787;28;20055;-77
2023/10/26 10:25:10;;;;;;;70.10;43.60;;;10.10;99.90;;;;;;5090173;28;20358;-76
2023/10/26 10:27:43;;;;;;;68.18;44.67;;;10.20;99.90;;;;;;5077049;28;20071;-77
2023/10/26 10:30:10;;;;;;;72.28;46.65;;;10.20;99.90;;;;;;5078070;28;20066;-76
2023/10/26 10:32:46;;;;;;;74.38;47.38;;;10.20;99.90;;;;;;5093432;28;20386;-77
2023/10/26 10:35:21;;;;;;;75.70;46.33;;;10.20;99.90;;;;;;5095067;28;20126;-77
2023/10/26 10:38:18;;;;;;;67.65;44.30;;;10.20;99.90;;;;;;5094623;28;20071;-77
2023/10/26 10:40:59;;;;;;;65.30;43.15;;;10.20;99.90;;;;;;5091398;28;20040;-76
2023/10/26 10:43:35;;;;;;;76.00;45.75;;;10.20;99.90;;;;;;5075073;28;20513;-77
2023/10/26 10:46:13;;;;;;;73.43;45.22;;;10.20;99.90;;;;;;5074605;28;20129;-76
2023/10/26 10:48:54;;;;;;;70.10;46.25;;;10.20;99.90;;;;;;5097689;28;20377;-76
2023/10/26 10:51:20;;;;;;;77.55;47.08;;;10.20;99.90;;;;;;5056966;28;20048;-76
2023/10/26 10:53:52;;;;;;;72.90;48.92;;;10.20;99.90;;;;;;5075939;28;20048;-77
2023/10/26 10:56:18;;;;;;;78.45;48.92;;;10.20;99.90;;;;;;5092492;28;20537;-77
2023/10/26 10:58:44;;;;;;;75.07;46.08;;;10.20;99.90;;;;;;5083806;28;20037;-77
2023/10/26 11:01:09;;;;;;;64.05;43.67;;;10.30;99.90;;;;;;5090641;28;20047;-78
2023/10/26 11:03:36;;;;;;;61.25;41.63;;;10.20;99.90;;;;;;5082317;28;20044;-77
2023/10/26 11:06:02;;;;;;;67.15;45.17;;;10.30;99.90;;;;;;5086549;28;20109;-77
2023/10/26 11:08:28;;;;;;;67.82;46.92;;;10.20;99.90;;;;;;5095070;28;20048;-76
2023/10/26 11:10:56;;;;;;;75.55;47.97;;;10.20;99.90;;;;;;5073349;28;20066;-76
2023/10/26 11:13:22;;;;;;;69.93;44.90;;;10.30;99.90;;;;;;5079333;28;20097;-77
2023/10/26 11:15:48;;;;;;;73.68;48.25;;;10.30;99.90;;;;;;5079227;28;20189;-78
2023/10/26 11:18:14;;;;;;;78.35;48.70;;;10.30;99.90;;;;;;5086756;28;20050;-79
2023/10/26 11:20:41;;;;;;;77.68;48.95;;;10.30;99.90;;;;;;5094272;28;20127;-78
2023/10/26 11:23:16;;;;;;;77.65;48.60;;;10.20;99.90;;;;;;5091011;28;20036;-79
2023/10/26 11:25:44;;;;;;;84.00;51.25;;;10.30;99.90;;;;;;5089101;28;20120;-79
2023/10/26 11:28:10;;;;;;;78.57;50.42;;;10.30;99.90;;;;;;5085605;28;20068;-78
2023/10/26 11:30:49;;;;;;;84.05;50.10;;;10.30;99.90;;;;;;5075619;28;20441;-78
2023/10/26 11:33:35;;;;;;;68.50;44.80;;;10.30;99.90;;;;;;5074346;28;20354;-79
2023/10/26 11:36:06;;;;;;;81.05;48.90;;;10.20;99.90;;;;;;5087680;28;20079;-79
2023/10/26 11:38:32;;;;;;;63.30;44.20;;;10.20;99.90;;;;;;5112551;28;20039;-79
2023/10/26 11:40:58;;;;;;;67.05;45.08;;;10.30;99.90;;;;;;5098364;28;20093;-78
2023/10/26 11:43:34;;;;;;;65.47;42.35;;;10.30;99.90;;;;;;5095961;28;20509;-78
2023/10/26 11:46:02;;;;;;;69.70;45.60;;;10.30;99.90;;;;;;5075430;28;20055;-78
2023/10/26 11:48:30;;;;;;;62.58;42.72;;;10.30;99.90;;;;;;5075501;28;20061;-78
2023/10/26 11:50:57;;;;;;;68.55;43.50;;;10.30;99.90;;;;;;5102685;28;20780;-79
2023/10/26 11:53:23;;;;;;;68.90;43.38;;;10.30;99.90;;;;;;5073126;28;20151;-78
2023/10/26 11:55:52;;;;;;;74.30;47.22;;;10.20;99.90;;;;;;5088952;28;20036;-83
2023/10/26 11:58:19;;;;;;;80.53;48.50;;;10.20;99.90;;;;;;5081485;28;20040;-78
2023/10/26 12:00:45;;;;;;;78.05;47.10;;;10.30;99.90;;;;;;5087827;28;20397;-79
2023/10/26 12:03:11;;;;;;;74.75;46.42;;;10.30;99.90;;;;;;5074029;28;20545;-78
2023/10/26 12:05:37;;;;;;;84.60;49.55;;;10.20;99.90;;;;;;5077344;28;20155;-79
2023/10/26 12:08:03;;;;;;;77.05;47.50;;;10.20;99.90;;;;;;5085351;28;20127;-78
2023/10/26 12:10:29;;;;;;;77.90;46.85;;;10.20;99.90;;;;;;5093265;28;20047;-78
2023/10/26 12:12:59;;;;;;;77.28;46.95;;;10.20;99.90;;;;;;5084627;28;20035;-79
2023/10/26 12:15:25;;;;;;;72.35;44.30;;;10.10;99.90;;;;;;5097633;28;20109;-80
2023/10/26 12:17:51;;;;;;;86.53;48.63;;;10.10;99.90;;;;;;5083130;28;20040;-79
2023/10/26 12:20:20;;;;;;;76.43;45.22;;;10.10;99.90;;;;;;5080000;28;20040;-79
2023/10/26 12:22:51;;;;;;;68.68;42.03;;;10.10;99.90;;;;;;5089201;28;20363;-78
2023/10/26 12:25:17;;;;;;;66.32;40.28;;;10.20;99.90;;;;;;5078471;28;20044;-79
2023/10/26 12:27:43;;;;;;;65.05;40.65;;;10.10;99.90;;;;;;5094798;28;20044;-79
2023/10/26 12:30:09;;;;;;;62.47;42.08;;;10.60;99.90;;;;;;5084046;28;20052;-79
2023/10/26 12:32:36;;;;;;;68.80;43.08;;;10.20;99.90;;;;;;5096855;28;20051;-78